createdAt,value
2023-08-17T00:00:23.741Z,22.59
2023-08-17T00:10:26.907Z,22.64
2023-08-17T00:20:29.890Z,22.67
2023-08-17T00:30:36.502Z,22.63
2023-08-17T00:40:39.706Z,22.70
2023-08-17T00:50:44.526Z,22.66
2023-08-17T01:00:48.061Z,22.18
2023-08-17T01:10:58.792Z,22.04
2023-08-17T01:21:06.428Z,20.72
2023-08-17T01:31:12.285Z,19.89
2023-08-17T01:41:16.658Z,19.85
2023-08-17T01:51:20.563Z,19.69
2023-08-17T02:01:23.841Z,19.64
2023-08-17T02:11:27.544Z,19.58
2023-08-17T02:21:30.526Z,19.55
2023-08-17T02:31:33.574Z,19.61
2023-08-17T02:41:36.572Z,19.67
2023-08-17T02:51:39.547Z,19.64
2023-08-17T03:01:42.592Z,19.52
2023-08-17T03:11:45.684Z,19.43
2023-08-17T03:21:48.682Z,19.41
2023-08-17T03:31:51.680Z,19.33
2023-08-17T03:41:54.669Z,19.21
2023-08-17T03:51:57.789Z,19.20
2023-08-17T04:02:01.060Z,19.20
2023-08-17T04:12:05.475Z,19.21
2023-08-17T04:22:10.722Z,19.36
2023-08-17T04:32:16.430Z,19.44
2023-08-17T04:42:20.451Z,19.53
2023-08-17T04:52:23.706Z,19.71
2023-08-17T05:02:27.445Z,19.85
2023-08-17T05:12:31.260Z,19.94
2023-08-17T05:22:34.381Z,19.96
2023-08-17T05:32:37.442Z,20.07
2023-08-17T05:42:40.639Z,20.26
2023-08-17T05:52:43.704Z,20.47
2023-08-17T06:02:50.463Z,20.65
2023-08-17T06:12:52.906Z,20.82
2023-08-17T06:22:55.882Z,20.95
2023-08-17T06:32:59.462Z,21.11
2023-08-17T06:43:02.458Z,21.16
2023-08-17T06:53:06.301Z,21.23
2023-08-17T07:03:09.661Z,21.39
2023-08-17T07:13:12.659Z,21.57
2023-08-17T07:23:15.783Z,21.86
2023-08-17T07:33:18.840Z,22.29
2023-08-17T07:43:21.857Z,22.66
2023-08-17T07:53:24.929Z,23.15
2023-08-17T08:03:27.999Z,23.70
2023-08-17T08:13:31.052Z,24.28
2023-08-17T08:23:34.058Z,24.84
2023-08-17T08:33:37.214Z,25.03
2023-08-17T08:43:40.444Z,25.48
2023-08-17T08:53:46.529Z,26.18
2023-08-17T09:03:50.541Z,26.83
2023-08-17T09:13:55.101Z,27.30
2023-08-17T09:24:00.406Z,27.53
2023-08-17T09:34:07.512Z,27.46
2023-08-17T09:44:12.005Z,27.82
2023-08-17T09:54:23.042Z,28.60
2023-08-17T10:04:28.692Z,29.16
2023-08-17T10:14:36.245Z,29.89
2023-08-17T10:24:40.318Z,30.73
2023-08-17T10:34:43.999Z,31.31
2023-08-17T10:44:48.211Z,32.05
2023-08-17T10:54:51.345Z,32.74
2023-08-17T11:04:54.353Z,33.19
2023-08-17T11:15:00.339Z,33.74
2023-08-17T11:25:07.487Z,34.19
2023-08-17T11:35:11.595Z,34.34
2023-08-17T11:45:15.660Z,34.46
2023-08-17T11:55:20.956Z,34.50
2023-08-17T12:05:27.456Z,34.68
2023-08-17T12:15:33.115Z,35.18
2023-08-17T12:25:36.098Z,35.75
2023-08-17T12:35:39.815Z,36.31
2023-08-17T12:45:42.862Z,36.88
2023-08-17T12:55:45.945Z,37.23
2023-08-17T13:05:48.922Z,37.70
2023-08-17T13:15:52.853Z,38.11
2023-08-17T13:25:55.831Z,38.46
2023-08-17T13:35:58.958Z,38.05
2023-08-17T13:46:02.480Z,38.20
2023-08-17T13:56:05.940Z,38.74
2023-08-17T14:06:08.970Z,38.73
2023-08-17T14:16:12.279Z,38.89
2023-08-17T14:26:15.747Z,38.92
2023-08-17T14:36:20.489Z,39.05
2023-08-17T14:46:24.087Z,39.45
2023-08-17T14:56:27.125Z,39.03
2023-08-17T15:06:34.261Z,37.26
2023-08-17T15:16:38.119Z,33.25
2023-08-17T15:26:41.457Z,30.43
2023-08-17T15:36:44.464Z,28.35
2023-08-17T15:46:47.424Z,26.97
2023-08-17T15:56:51.059Z,26.48
2023-08-17T16:06:54.431Z,26.15
2023-08-17T16:16:57.928Z,25.75
2023-08-17T16:27:01.653Z,25.39
2023-08-17T16:37:04.880Z,25.15
2023-08-17T16:47:07.900Z,25.04
2023-08-17T16:57:10.933Z,24.82
2023-08-17T17:07:14.627Z,24.60
2023-08-17T17:17:17.698Z,24.53
2023-08-17T17:27:20.676Z,24.50
2023-08-17T17:37:23.726Z,24.52
2023-08-17T17:47:27.618Z,24.43
2023-08-17T17:57:31.175Z,24.38
2023-08-17T18:07:34.398Z,24.21
2023-08-17T18:17:37.433Z,24.11
2023-08-17T18:27:42.135Z,23.79
2023-08-17T18:37:46.237Z,23.58
2023-08-17T18:47:49.184Z,23.44
2023-08-17T18:57:54.150Z,23.35
2023-08-17T19:07:58.016Z,23.27
2023-08-17T19:18:01.046Z,23.11
2023-08-17T19:28:04.527Z,22.97
2023-08-17T19:38:07.513Z,22.98
2023-08-17T19:48:10.583Z,22.89
2023-08-17T19:58:13.648Z,22.79
2023-08-17T20:08:16.676Z,22.80
2023-08-17T20:18:19.720Z,22.75
2023-08-17T20:28:22.742Z,22.63
2023-08-17T20:38:25.685Z,22.47
2023-08-17T20:48:28.710Z,22.30
2023-08-17T20:58:31.703Z,22.25
2023-08-17T21:08:35.752Z,22.22
2023-08-17T21:18:39.818Z,22.30
2023-08-17T21:28:42.857Z,22.31
2023-08-17T21:38:47.213Z,22.20
2023-08-17T21:48:50.475Z,22.02
2023-08-17T21:58:53.530Z,21.81
2023-08-17T22:08:56.477Z,21.62
2023-08-17T22:18:59.481Z,21.51
2023-08-17T22:29:03.826Z,21.42
2023-08-17T22:39:10.753Z,21.35
2023-08-17T22:49:13.880Z,21.27
2023-08-17T22:59:17.999Z,21.16
2023-08-17T23:09:21.617Z,21.06
2023-08-17T23:19:24.767Z,20.98
2023-08-17T23:29:27.863Z,20.91
2023-08-17T23:39:30.975Z,20.83
2023-08-17T23:49:34.494Z,20.80
2023-08-17T23:59:37.495Z,20.82
